sensor_id;sensor_type;location;lat;lon;timestamp;pressure;altitude;pressure_sealevel;temperature;humidity
64739;BME280;51175;51.186;0.276;2024-03-02T00:00:28;98869.53;;;4.25;95.25
64739;BME280;51175;51.186;0.276;2024-03-02T00:00:58;98867.97;;;4.24;95.13
64739;BME280;51175;51.186;0.276;2024-03-02T00:01:28;98864.28;;;4.25;95.16
64739;BME280;51175;51.186;0.276;2024-03-02T00:01:59;98868.72;;;4.24;95.13
64739;BME280;51175;51.186;0.276;2024-03-02T00:02:29;98865.34;;;4.24;95.33
64739;BME280;51175;51.186;0.276;2024-03-02T00:02:59;98872.41;;;4.23;95.10
64739;BME280;51175;51.186;0.276;2024-03-02T00:03:30;98877.88;;;4.21;95.13
64739;BME280;51175;51.186;0.276;2024-03-02T00:04:03;98872.09;;;4.19;95.11
64739;BME280;51175;51.186;0.276;2024-03-02T00:04:34;98866.13;;;4.19;95.00
64739;BME280;51175;51.186;0.276;2024-03-02T00:05:04;98872.38;;;4.18;95.09
64739;BME280;51175;51.186;0.276;2024-03-02T00:05:35;98873.41;;;4.17;95.14
64739;BME280;51175;51.186;0.276;2024-03-02T00:06:06;98872.88;;;4.15;95.06
64739;BME280;51175;51.186;0.276;2024-03-02T00:06:37;98873.69;;;4.15;95.00
64739;BME280;51175;51.186;0.276;2024-03-02T00:07:07;98871.06;;;4.15;95.13
64739;BME280;51175;51.186;0.276;2024-03-02T00:07:42;98873.13;;;4.13;94.97
64739;BME280;51175;51.186;0.276;2024-03-02T00:08:14;98867.91;;;4.13;95.09
64739;BME280;51175;51.186;0.276;2024-03-02T00:08:49;98863.47;;;4.14;95.15
64739;BME280;51175;51.186;0.276;2024-03-02T00:09:20;98874.97;;;4.13;95.12
64739;BME280;51175;51.186;0.276;2024-03-02T00:09:53;98867.41;;;4.11;95.16
64739;BME280;51175;51.186;0.276;2024-03-02T00:10:35;98863.44;;;4.08;95.12
64739;BME280;51175;51.186;0.276;2024-03-02T00:11:07;98871.84;;;4.10;95.14
64739;BME280;51175;51.186;0.276;2024-03-02T00:11:38;98868.41;;;4.10;95.14
64739;BME280;51175;51.186;0.276;2024-03-02T00:12:11;98869.47;;;4.09;95.22
64739;BME280;51175;51.186;0.276;2024-03-02T00:12:47;98861.63;;;4.09;95.14
64739;BME280;51175;51.186;0.276;2024-03-02T00:13:20;98870.53;;;4.08;95.01
64739;BME280;51175;51.186;0.276;2024-03-02T00:13:53;98865.81;;;4.10;95.18
64739;BME280;51175;51.186;0.276;2024-03-02T00:14:24;98867.66;;;4.09;95.14
64739;BME280;51175;51.186;0.276;2024-03-02T00:14:54;98866.06;;;4.08;95.24
64739;BME280;51175;51.186;0.276;2024-03-02T00:15:47;98871.03;;;4.05;95.11
64739;BME280;51175;51.186;0.276;2024-03-02T00:16:18;98870.00;;;4.06;95.12
64739;BME280;51175;51.186;0.276;2024-03-02T00:16:48;98874.41;;;4.05;95.19
64739;BME280;51175;51.186;0.276;2024-03-02T00:17:24;98874.66;;;4.04;95.07
64739;BME280;51175;51.186;0.276;2024-03-02T00:17:56;98874.41;;;4.05;95.21
64739;BME280;51175;51.186;0.276;2024-03-02T00:18:30;98884.34;;;4.03;95.29
64739;BME280;51175;51.186;0.276;2024-03-02T00:19:02;98873.66;;;4.05;95.18
64739;BME280;51175;51.186;0.276;2024-03-02T00:19:33;98878.09;;;4.04;95.23
64739;BME280;51175;51.186;0.276;2024-03-02T00:20:03;98876.25;;;4.05;95.30
64739;BME280;51175;51.186;0.276;2024-03-02T00:20:40;98878.88;;;4.05;95.37
64739;BME280;51175;51.186;0.276;2024-03-02T00:21:10;98865.56;;;4.06;95.45
64739;BME280;51175;51.186;0.276;2024-03-02T00:21:41;98871.53;;;4.07;95.52
64739;BME280;51175;51.186;0.276;2024-03-02T00:22:11;98865.31;;;4.08;95.67
64739;BME280;51175;51.186;0.276;2024-03-02T00:22:42;98875.75;;;4.08;95.58
64739;BME280;51175;51.186;0.276;2024-03-02T00:23:16;98873.13;;;4.08;95.70
64739;BME280;51175;51.186;0.276;2024-03-02T00:23:48;98870.28;;;4.09;95.84
64739;BME280;51175;51.186;0.276;2024-03-02T00:24:33;98866.88;;;4.09;96.00
64739;BME280;51175;51.186;0.276;2024-03-02T00:25:05;98866.34;;;4.12;95.99
64739;BME280;51175;51.186;0.276;2024-03-02T00:25:46;98875.25;;;4.11;96.13
64739;BME280;51175;51.186;0.276;2024-03-02T00:26:17;98866.88;;;4.14;96.14
64739;BME280;51175;51.186;0.276;2024-03-02T00:26:47;98871.84;;;4.16;96.19
64739;BME280;51175;51.186;0.276;2024-03-02T00:27:19;98869.25;;;4.16;96.16
64739;BME280;51175;51.186;0.276;2024-03-02T00:27:50;98879.44;;;4.17;96.42
64739;BME280;51175;51.186;0.276;2024-03-02T00:28:56;98874.22;;;4.17;96.32
64739;BME280;51175;51.186;0.276;2024-03-02T00:29:27;98870.56;;;4.18;96.37
64739;BME280;51175;51.186;0.276;2024-03-02T00:30:00;98865.31;;;4.18;96.43
64739;BME280;51175;51.186;0.276;2024-03-02T00:30:48;98872.63;;;4.16;96.49
64739;BME280;51175;51.186;0.276;2024-03-02T00:31:21;98870.56;;;4.18;96.58
64739;BME280;51175;51.186;0.276;2024-03-02T00:31:51;98867.13;;;4.18;96.38
64739;BME280;51175;51.186;0.276;2024-03-02T00:32:21;98863.50;;;4.19;96.45
64739;BME280;51175;51.186;0.276;2024-03-02T00:32:52;98867.13;;;4.18;96.23
64739;BME280;51175;51.186;0.276;2024-03-02T00:33:26;98865.84;;;4.15;96.37
64739;BME280;51175;51.186;0.276;2024-03-02T00:33:59;98868.44;;;4.15;96.37
64739;BME280;51175;51.186;0.276;2024-03-02T00:34:32;98862.16;;;4.16;96.40
64739;BME280;51175;51.186;0.276;2024-03-02T00:35:04;98860.88;;;4.14;96.33
64739;BME280;51175;51.186;0.276;2024-03-02T00:35:35;98862.44;;;4.15;96.40
64739;BME280;51175;51.186;0.276;2024-03-02T00:36:06;98863.47;;;4.14;96.29
64739;BME280;51175;51.186;0.276;2024-03-02T00:36:37;98872.13;;;4.14;96.59
64739;BME280;51175;51.186;0.276;2024-03-02T00:37:07;98867.16;;;4.13;96.53
64739;BME280;51175;51.186;0.276;2024-03-02T00:37:38;98873.94;;;4.14;96.35
64739;BME280;51175;51.186;0.276;2024-03-02T00:38:08;98869.75;;;4.13;96.40
64739;BME280;51175;51.186;0.276;2024-03-02T00:38:52;98872.09;;;4.09;96.27
64739;BME280;51175;51.186;0.276;2024-03-02T00:39:23;98869.22;;;4.10;96.36
64739;BME280;51175;51.186;0.276;2024-03-02T00:39:53;98864.25;;;4.09;96.34
64739;BME280;51175;51.186;0.276;2024-03-02T00:40:29;98874.97;;;4.07;96.33
64739;BME280;51175;51.186;0.276;2024-03-02T00:41:04;98868.16;;;4.06;96.34
64739;BME280;51175;51.186;0.276;2024-03-02T00:41:35;98868.94;;;4.07;96.33
64739;BME280;51175;51.186;0.276;2024-03-02T00:42:06;98868.16;;;4.06;96.33
64739;BME280;51175;51.186;0.276;2024-03-02T00:42:36;98867.13;;;4.07;96.45
64739;BME280;51175;51.186;0.276;2024-03-02T00:43:18;98869.19;;;4.05;96.45
64739;BME280;51175;51.186;0.276;2024-03-02T00:44:03;98865.81;;;4.05;96.61
64739;BME280;51175;51.186;0.276;2024-03-02T00:44:35;98867.91;;;4.08;96.52
64739;BME280;51175;51.186;0.276;2024-03-02T00:45:07;98870.53;;;4.08;96.49
64739;BME280;51175;51.186;0.276;2024-03-02T00:45:39;98866.06;;;4.08;96.55
64739;BME280;51175;51.186;0.276;2024-03-02T00:46:15;98868.16;;;4.06;96.59
64739;BME280;51175;51.186;0.276;2024-03-02T00:46:46;98869.72;;;4.07;96.71
64739;BME280;51175;51.186;0.276;2024-03-02T00:47:16;98871.28;;;4.08;96.65
64739;BME280;51175;51.186;0.276;2024-03-02T00:47:47;98867.13;;;4.07;96.54
64739;BME280;51175;51.186;0.276;2024-03-02T00:48:17;98866.88;;;4.09;96.71
64739;BME280;51175;51.186;0.276;2024-03-02T00:48:52;98867.91;;;4.08;96.89
64739;BME280;51175;51.186;0.276;2024-03-02T00:49:24;98860.06;;;4.08;96.69
64739;BME280;51175;51.186;0.276;2024-03-02T00:49:56;98866.88;;;4.09;96.84
64739;BME280;51175;51.186;0.276;2024-03-02T00:50:27;98862.44;;;4.09;96.55
64739;BME280;51175;51.186;0.276;2024-03-02T00:50:57;98856.94;;;4.11;96.89
64739;BME280;51175;51.186;0.276;2024-03-02T00:51:30;98853.53;;;4.10;96.87
64739;BME280;51175;51.186;0.276;2024-03-02T00:52:00;98845.69;;;4.10;97.00
64739;BME280;51175;51.186;0.276;2024-03-02T00:52:31;98847.00;;;4.13;96.94
64739;BME280;51175;51.186;0.276;2024-03-02T00:53:03;98854.84;;;4.13;97.13
64739;BME280;51175;51.186;0.276;2024-03-02T00:53:34;98854.59;;;4.15;97.42
64739;BME280;51175;51.186;0.276;2024-03-02T00:54:05;98854.34;;;4.16;97.27
64739;BME280;51175;51.186;0.276;2024-03-02T00:54:36;98856.69;;;4.18;97.30
64739;BME280;51175;51.186;0.276;2024-03-02T00:55:07;98856.69;;;4.18;97.32
64739;BME280;51175;51.186;0.276;2024-03-02T00:55:38;98848.09;;;4.17;97.15
64739;BME280;51175;51.186;0.276;2024-03-02T00:56:11;98859.31;;;4.18;97.33
64739;BME280;51175;51.186;0.276;2024-03-02T00:56:42;98861.66;;;4.19;97.44
64739;BME280;51175;51.186;0.276;2024-03-02T00:57:13;98860.88;;;4.19;97.50
64739;BME280;51175;51.186;0.276;2024-03-02T00:57:44;98855.66;;;4.19;97.62
64739;BME280;51175;51.186;0.276;2024-03-02T00:58:14;98857.22;;;4.20;97.73
64739;BME280;51175;51.186;0.276;2024-03-02T00:58:44;98854.63;;;4.20;97.55
64739;BME280;51175;51.186;0.276;2024-03-02T00:59:15;98858.03;;;4.20;97.64
64739;BME280;51175;51.186;0.276;2024-03-02T00:59:45;98855.41;;;4.20;97.66
64739;BME280;51175;51.186;0.276;2024-03-02T01:00:16;98859.84;;;4.20;97.70
64739;BME280;51175;51.186;0.276;2024-03-02T01:00:48;98850.19;;;4.20;97.70
64739;BME280;51175;51.186;0.276;2024-03-02T01:01:18;98857.22;;;4.20;97.63
64739;BME280;51175;51.186;0.276;2024-03-02T01:01:49;98850.19;;;4.20;97.69
64739;BME280;51175;51.186;0.276;2024-03-02T01:02:20;98846.50;;;4.21;97.77
64739;BME280;51175;51.186;0.276;2024-03-02T01:02:50;98849.94;;;4.22;97.78
64739;BME280;51175;51.186;0.276;2024-03-02T01:03:21;98853.31;;;4.22;97.79
64739;BME280;51175;51.186;0.276;2024-03-02T01:03:52;98855.66;;;4.24;97.99
64739;BME280;51175;51.186;0.276;2024-03-02T01:04:22;98851.22;;;4.25;97.97
64739;BME280;51175;51.186;0.276;2024-03-02T01:04:53;98851.75;;;4.27;97.95
64739;BME280;51175;51.186;0.276;2024-03-02T01:05:24;98852.03;;;4.25;97.97
64739;BME280;51175;51.186;0.276;2024-03-02T01:05:54;98857.00;;;4.27;98.10
64739;BME280;51175;51.186;0.276;2024-03-02T01:06:24;98852.53;;;4.27;97.91
64739;BME280;51175;51.186;0.276;2024-03-02T01:06:54;98849.91;;;4.27;98.12
64739;BME280;51175;51.186;0.276;2024-03-02T01:07:25;98858.28;;;4.29;98.31
64739;BME280;51175;51.186;0.276;2024-03-02T01:07:55;98853.88;;;4.30;98.08
64739;BME280;51175;51.186;0.276;2024-03-02T01:08:26;98850.19;;;4.31;98.23
64739;BME280;51175;51.186;0.276;2024-03-02T01:08:56;98856.97;;;4.32;98.46
64739;BME280;51175;51.186;0.276;2024-03-02T01:09:26;98855.97;;;4.33;98.35
64739;BME280;51175;51.186;0.276;2024-03-02T01:09:57;98856.50;;;4.35;98.54
64739;BME280;51175;51.186;0.276;2024-03-02T01:10:27;98853.88;;;4.35;98.40
64739;BME280;51175;51.186;0.276;2024-03-02T01:10:58;98858.06;;;4.36;98.61
64739;BME280;51175;51.186;0.276;2024-03-02T01:11:28;98856.25;;;4.37;98.38
64739;BME280;51175;51.186;0.276;2024-03-02T01:12:00;98859.63;;;4.37;98.45
64739;BME280;51175;51.186;0.276;2024-03-02T01:12:30;98855.97;;;4.38;98.47
64739;BME280;51175;51.186;0.276;2024-03-02T01:13:01;98854.13;;;4.39;98.50
64739;BME280;51175;51.186;0.276;2024-03-02T01:13:31;98857.53;;;4.39;98.45
64739;BME280;51175;51.186;0.276;2024-03-02T01:14:02;98859.09;;;4.40;98.50
64739;BME280;51175;51.186;0.276;2024-03-02T01:14:32;98853.88;;;4.40;98.85
64739;BME280;51175;51.186;0.276;2024-03-02T01:15:03;98853.09;;;4.40;98.54
64739;BME280;51175;51.186;0.276;2024-03-02T01:15:36;98850.50;;;4.40;98.59
64739;BME280;51175;51.186;0.276;2024-03-02T01:16:06;98859.91;;;4.41;98.56
64739;BME280;51175;51.186;0.276;2024-03-02T01:16:36;98852.84;;;4.41;98.47
64739;BME280;51175;51.186;0.276;2024-03-02T01:17:07;98854.41;;;4.42;98.59
64739;BME280;51175;51.186;0.276;2024-03-02T01:17:37;98846.56;;;4.42;98.70
64739;BME280;51175;51.186;0.276;2024-03-02T01:18:07;98844.75;;;4.43;98.55
64739;BME280;51175;51.186;0.276;2024-03-02T01:18:38;98847.09;;;4.44;98.62
64739;BME280;51175;51.186;0.276;2024-03-02T01:19:09;98848.91;;;4.44;98.62
64739;BME280;51175;51.186;0.276;2024-03-02T01:19:41;98845.25;;;4.45;98.61
64739;BME280;51175;51.186;0.276;2024-03-02T01:20:12;98847.88;;;4.45;98.61
64739;BME280;51175;51.186;0.276;2024-03-02T01:20:42;98842.38;;;4.46;98.44
64739;BME280;51175;51.186;0.276;2024-03-02T01:21:13;98843.44;;;4.45;98.55
64739;BME280;51175;51.186;0.276;2024-03-02T01:21:43;98846.06;;;4.45;98.61
64739;BME280;51175;51.186;0.276;2024-03-02T01:22:13;98844.22;;;4.46;98.68
64739;BME280;51175;51.186;0.276;2024-03-02T01:22:44;98844.22;;;4.46;98.59
64739;BME280;51175;51.186;0.276;2024-03-02T01:23:14;98843.44;;;4.45;98.67
64739;BME280;51175;51.186;0.276;2024-03-02T01:23:44;98848.66;;;4.45;98.71
64739;BME280;51175;51.186;0.276;2024-03-02T01:24:15;98848.66;;;4.45;98.72
64739;BME280;51175;51.186;0.276;2024-03-02T01:24:45;98841.88;;;4.44;98.61
64739;BME280;51175;51.186;0.276;2024-03-02T01:25:15;98845.25;;;4.45;98.65
64739;BME280;51175;51.186;0.276;2024-03-02T01:25:47;98850.22;;;4.46;98.52
64739;BME280;51175;51.186;0.276;2024-03-02T01:26:17;98845.78;;;4.47;98.66
64739;BME280;51175;51.186;0.276;2024-03-02T01:26:48;98848.41;;;4.47;98.63
64739;BME280;51175;51.186;0.276;2024-03-02T01:27:18;98848.41;;;4.47;98.50
64739;BME280;51175;51.186;0.276;2024-03-02T01:27:49;98848.41;;;4.47;98.28
64739;BME280;51175;51.186;0.276;2024-03-02T01:28:19;98849.97;;;4.48;98.58
64739;BME280;51175;51.186;0.276;2024-03-02T01:28:50;98854.44;;;4.47;98.62
64739;BME280;51175;51.186;0.276;2024-03-02T01:29:21;98845.53;;;4.49;98.50
64739;BME280;51175;51.186;0.276;2024-03-02T01:29:51;98852.31;;;4.50;98.58
64739;BME280;51175;51.186;0.276;2024-03-02T01:30:22;98856.00;;;4.49;98.65
64739;BME280;51175;51.186;0.276;2024-03-02T01:30:52;98846.31;;;4.49;98.58
64739;BME280;51175;51.186;0.276;2024-03-02T01:31:22;98846.31;;;4.49;98.64
64739;BME280;51175;51.186;0.276;2024-03-02T01:31:53;98856.00;;;4.49;98.64
64739;BME280;51175;51.186;0.276;2024-03-02T01:32:24;98847.09;;;4.50;98.56
64739;BME280;51175;51.186;0.276;2024-03-02T01:32:54;98848.94;;;4.49;98.52
64739;BME280;51175;51.186;0.276;2024-03-02T01:33:25;98836.63;;;4.50;98.61
64739;BME280;51175;51.186;0.276;2024-03-02T01:33:55;98839.25;;;4.50;98.49
64739;BME280;51175;51.186;0.276;2024-03-02T01:34:26;98838.47;;;4.49;98.53
64739;BME280;51175;51.186;0.276;2024-03-02T01:34:56;98840.31;;;4.49;98.54
64739;BME280;51175;51.186;0.276;2024-03-02T01:35:26;98840.31;;;4.49;98.48
64739;BME280;51175;51.186;0.276;2024-03-02T01:35:57;98837.69;;;4.49;98.43
64739;BME280;51175;51.186;0.276;2024-03-02T01:36:27;98841.34;;;4.47;98.43
64739;BME280;51175;51.186;0.276;2024-03-02T01:36:57;98837.16;;;4.46;98.49
64739;BME280;51175;51.186;0.276;2024-03-02T01:37:28;98830.09;;;4.47;98.35
64739;BME280;51175;51.186;0.276;2024-03-02T01:37:58;98836.38;;;4.46;98.35
64739;BME280;51175;51.186;0.276;2024-03-02T01:38:29;98834.78;;;4.45;98.33
64739;BME280;51175;51.186;0.276;2024-03-02T01:38:59;98837.66;;;4.43;98.33
64739;BME280;51175;51.186;0.276;2024-03-02T01:39:29;98826.19;;;4.44;98.36
64739;BME280;51175;51.186;0.276;2024-03-02T01:40:00;98838.22;;;4.45;98.28
64739;BME280;51175;51.186;0.276;2024-03-02T01:40:30;98830.63;;;4.44;98.50
64739;BME280;51175;51.186;0.276;2024-03-02T01:41:01;98843.69;;;4.44;98.35
64739;BME280;51175;51.186;0.276;2024-03-02T01:41:32;98841.06;;;4.44;98.16
64739;BME280;51175;51.186;0.276;2024-03-02T01:42:02;98848.13;;;4.43;98.42
64739;BME280;51175;51.186;0.276;2024-03-02T01:42:33;98834.56;;;4.41;98.24
64739;BME280;51175;51.186;0.276;2024-03-02T01:43:05;98845.00;;;4.41;98.14
64739;BME280;51175;51.186;0.276;2024-03-02T01:43:36;98845.78;;;4.42;98.19
64739;BME280;51175;51.186;0.276;2024-03-02T01:44:06;98845.78;;;4.42;98.50
64739;BME280;51175;51.186;0.276;2024-03-02T01:44:37;98844.75;;;4.43;98.28
64739;BME280;51175;51.186;0.276;2024-03-02T01:45:08;98840.53;;;4.42;98.23
64739;BME280;51175;51.186;0.276;2024-03-02T01:45:39;98846.56;;;4.42;98.37
64739;BME280;51175;51.186;0.276;2024-03-02T01:46:09;98831.13;;;4.41;98.18
64739;BME280;51175;51.186;0.276;2024-03-02T01:46:40;98841.34;;;4.42;98.26
64739;BME280;51175;51.186;0.276;2024-03-02T01:47:10;98841.34;;;4.42;98.25
64739;BME280;51175;51.186;0.276;2024-03-02T01:47:40;98837.94;;;4.42;98.25
64739;BME280;51175;51.186;0.276;2024-03-02T01:48:11;98842.13;;;4.43;98.23
64739;BME280;51175;51.186;0.276;2024-03-02T01:48:41;98839.53;;;4.43;98.16
64739;BME280;51175;51.186;0.276;2024-03-02T01:49:12;98841.34;;;4.42;98.13
64739;BME280;51175;51.186;0.276;2024-03-02T01:49:42;98834.56;;;4.41;98.06
64739;BME280;51175;51.186;0.276;2024-03-02T01:50:12;98839.78;;;4.41;98.39
64739;BME280;51175;51.186;0.276;2024-03-02T01:50:43;98837.16;;;4.41;98.14
64739;BME280;51175;51.186;0.276;2024-03-02T01:51:13;98841.59;;;4.41;98.18
64739;BME280;51175;51.186;0.276;2024-03-02T01:51:44;98831.94;;;4.41;98.07
64739;BME280;51175;51.186;0.276;2024-03-02T01:52:15;98833.75;;;4.41;98.11
64739;BME280;51175;51.186;0.276;2024-03-02T01:52:45;98838.97;;;4.41;98.23
64739;BME280;51175;51.186;0.276;2024-03-02T01:53:16;98837.41;;;4.40;98.09
64739;BME280;51175;51.186;0.276;2024-03-02T01:53:46;98838.19;;;4.40;98.24
64739;BME280;51175;51.186;0.276;2024-03-02T01:54:17;98837.41;;;4.40;97.97
64739;BME280;51175;51.186;0.276;2024-03-02T01:54:47;98835.84;;;4.39;98.03
64739;BME280;51175;51.186;0.276;2024-03-02T01:55:17;98834.28;;;4.38;98.11
64739;BME280;51175;51.186;0.276;2024-03-02T01:55:48;98830.88;;;4.37;98.07
64739;BME280;51175;51.186;0.276;2024-03-02T01:56:18;98837.69;;;4.38;97.98
64739;BME280;51175;51.186;0.276;2024-03-02T01:56:48;98834.28;;;4.38;98.05
64739;BME280;51175;51.186;0.276;2024-03-02T01:57:19;98832.44;;;4.38;97.96
64739;BME280;51175;51.186;0.276;2024-03-02T01:57:49;98838.72;;;4.37;98.12
64739;BME280;51175;51.186;0.276;2024-03-02T01:58:24;98837.94;;;4.37;97.91
64739;BME280;51175;51.186;0.276;2024-03-02T01:58:54;98836.09;;;4.37;97.89
64739;BME280;51175;51.186;0.276;2024-03-02T01:59:25;98836.88;;;4.38;98.18
64739;BME280;51175;51.186;0.276;2024-03-02T01:59:55;98837.94;;;4.37;98.08
64739;BME280;51175;51.186;0.276;2024-03-02T02:00:26;98839.75;;;4.36;97.92
64739;BME280;51175;51.186;0.276;2024-03-02T02:00:56;98834.53;;;4.36;98.10
64739;BME280;51175;51.186;0.276;2024-03-02T02:01:27;98837.41;;;4.34;97.79
64739;BME280;51175;51.186;0.276;2024-03-02T02:01:57;98838.19;;;4.35;98.09
64739;BME280;51175;51.186;0.276;2024-03-02T02:02:28;98841.56;;;4.35;97.92
64739;BME280;51175;51.186;0.276;2024-03-02T02:02:58;98841.06;;;4.33;97.90
64739;BME280;51175;51.186;0.276;2024-03-02T02:03:29;98836.59;;;4.34;97.82
64739;BME280;51175;51.186;0.276;2024-03-02T02:03:59;98836.59;;;4.34;97.91
64739;BME280;51175;51.186;0.276;2024-03-02T02:04:30;98841.84;;;4.34;97.91
64739;BME280;51175;51.186;0.276;2024-03-02T02:05:01;98841.84;;;4.34;97.88
64739;BME280;51175;51.186;0.276;2024-03-02T02:05:31;98841.84;;;4.34;97.99
64739;BME280;51175;51.186;0.276;2024-03-02T02:06:02;98841.56;;;4.35;97.83
64739;BME280;51175;51.186;0.276;2024-03-02T02:06:32;98842.38;;;4.36;98.06
64739;BME280;51175;51.186;0.276;2024-03-02T02:07:03;98847.59;;;4.36;97.89
64739;BME280;51175;51.186;0.276;2024-03-02T02:07:34;98842.38;;;4.36;97.93
64739;BME280;51175;51.186;0.276;2024-03-02T02:08:05;98840.56;;;4.37;97.89
64739;BME280;51175;51.186;0.276;2024-03-02T02:08:37;98842.13;;;4.38;97.91
64739;BME280;51175;51.186;0.276;2024-03-02T02:09:07;98842.91;;;4.38;98.05
64739;BME280;51175;51.186;0.276;2024-03-02T02:09:38;98842.91;;;4.38;97.86
64739;BME280;51175;51.186;0.276;2024-03-02T02:10:09;98843.69;;;4.39;98.01
64739;BME280;51175;51.186;0.276;2024-03-02T02:10:40;98845.25;;;4.40;97.99
64739;BME280;51175;51.186;0.276;2024-03-02T02:11:10;98838.19;;;4.40;98.07
64739;BME280;51175;51.186;0.276;2024-03-02T02:11:41;98841.59;;;4.41;98.07
64739;BME280;51175;51.186;0.276;2024-03-02T02:12:11;98847.88;;;4.40;98.00
64739;BME280;51175;51.186;0.276;2024-03-02T02:12:42;98845.78;;;4.42;98.09
64739;BME280;51175;51.186;0.276;2024-03-02T02:13:13;98849.19;;;4.42;97.88
64739;BME280;51175;51.186;0.276;2024-03-02T02:13:43;98841.34;;;4.42;98.09
64739;BME280;51175;51.186;0.276;2024-03-02T02:14:14;98841.06;;;4.44;98.35
64739;BME280;51175;51.186;0.276;2024-03-02T02:14:48;98847.34;;;4.43;98.15
64739;BME280;51175;51.186;0.276;2024-03-02T02:15:25;98842.91;;;4.43;98.19
64739;BME280;51175;51.186;0.276;2024-03-02T02:16:04;98845.50;;;4.43;98.03
64739;BME280;51175;51.186;0.276;2024-03-02T02:16:35;98839.75;;;4.46;98.07
64739;BME280;51175;51.186;0.276;2024-03-02T02:17:05;98833.50;;;4.47;98.19
64739;BME280;51175;51.186;0.276;2024-03-02T02:17:36;98836.91;;;4.48;98.13
64739;BME280;51175;51.186;0.276;2024-03-02T02:18:06;98837.69;;;4.49;97.97
64739;BME280;51175;51.186;0.276;2024-03-02T02:18:37;98836.63;;;4.50;98.14
64739;BME280;51175;51.186;0.276;2024-03-02T02:19:08;98840.84;;;4.51;98.19
64739;BME280;51175;51.186;0.276;2024-03-02T02:19:40;98833.00;;;4.51;98.09
64739;BME280;51175;51.186;0.276;2024-03-02T02:20:11;98837.16;;;4.52;98.23
64739;BME280;51175;51.186;0.276;2024-03-02T02:20:41;98834.56;;;4.52;98.19
64739;BME280;51175;51.186;0.276;2024-03-02T02:21:12;98836.91;;;4.53;98.20
64739;BME280;51175;51.186;0.276;2024-03-02T02:21:42;98832.47;;;4.54;98.22
64739;BME280;51175;51.186;0.276;2024-03-02T02:22:13;98838.72;;;4.53;98.16
64739;BME280;51175;51.186;0.276;2024-03-02T02:22:56;98836.13;;;4.53;98.18
64739;BME280;51175;51.186;0.276;2024-03-02T02:23:27;98831.94;;;4.57;98.25
64739;BME280;51175;51.186;0.276;2024-03-02T02:23:57;98831.94;;;4.57;98.17
64739;BME280;51175;51.186;0.276;2024-03-02T02:24:28;98828.28;;;4.58;98.30
64739;BME280;51175;51.186;0.276;2024-03-02T02:24:58;98832.47;;;4.59;98.26
64739;BME280;51175;51.186;0.276;2024-03-02T02:25:29;98831.44;;;4.60;98.28
64739;BME280;51175;51.186;0.276;2024-03-02T02:25:59;98833.78;;;4.62;98.35
64739;BME280;51175;51.186;0.276;2024-03-02T02:26:29;98825.94;;;4.62;98.18
64739;BME280;51175;51.186;0.276;2024-03-02T02:27:00;98829.31;;;4.62;98.25
64739;BME280;51175;51.186;0.276;2024-03-02T02:27:30;98828.28;;;4.63;98.43
64739;BME280;51175;51.186;0.276;2024-03-02T02:28:00;98826.44;;;4.64;98.23
64739;BME280;51175;51.186;0.276;2024-03-02T02:28:32;98828.81;;;4.65;98.32
64739;BME280;51175;51.186;0.276;2024-03-02T02:29:02;98826.19;;;4.65;98.20
64739;BME280;51175;51.186;0.276;2024-03-02T02:29:32;98832.22;;;4.66;98.17
64739;BME280;51175;51.186;0.276;2024-03-02T02:30:03;98826.19;;;4.65;98.13
64739;BME280;51175;51.186;0.276;2024-03-02T02:30:34;98820.97;;;4.65;98.23
64739;BME280;51175;51.186;0.276;2024-03-02T02:31:04;98823.34;;;4.67;98.22
64739;BME280;51175;51.186;0.276;2024-03-02T02:31:41;98825.16;;;4.66;98.29
64739;BME280;51175;51.186;0.276;2024-03-02T02:32:12;98825.16;;;4.66;98.13
64739;BME280;51175;51.186;0.276;2024-03-02T02:32:42;98824.63;;;4.69;98.25
64739;BME280;51175;51.186;0.276;2024-03-02T02:33:12;98818.88;;;4.67;98.22
64739;BME280;51175;51.186;0.276;2024-03-02T02:33:43;98817.84;;;4.68;98.19
64739;BME280;51175;51.186;0.276;2024-03-02T02:34:14;98824.63;;;4.69;98.10
64739;BME280;51175;51.186;0.276;2024-03-02T02:34:45;98826.19;;;4.70;98.05
64739;BME280;51175;51.186;0.276;2024-03-02T02:35:15;98825.44;;;4.70;98.08
64739;BME280;51175;51.186;0.276;2024-03-02T02:35:46;98822.81;;;4.70;97.94
64739;BME280;51175;51.186;0.276;2024-03-02T02:36:16;98819.41;;;4.69;98.16
64739;BME280;51175;51.186;0.276;2024-03-02T02:36:46;98822.81;;;4.70;98.11
64739;BME280;51175;51.186;0.276;2024-03-02T02:37:17;98817.84;;;4.68;97.96
64739;BME280;51175;51.186;0.276;2024-03-02T02:37:48;98817.84;;;4.68;97.97
64739;BME280;51175;51.186;0.276;2024-03-02T02:38:19;98819.41;;;4.69;97.90
64739;BME280;51175;51.186;0.276;2024-03-02T02:38:50;98820.97;;;4.70;97.93
64739;BME280;51175;51.186;0.276;2024-03-02T02:39:21;98817.84;;;4.68;97.83
64739;BME280;51175;51.186;0.276;2024-03-02T02:39:54;98816.25;;;4.67;97.79
64739;BME280;51175;51.186;0.276;2024-03-02T02:40:25;98808.41;;;4.67;97.69
64739;BME280;51175;51.186;0.276;2024-03-02T02:40:55;98811.03;;;4.67;97.60
64739;BME280;51175;51.186;0.276;2024-03-02T02:41:25;98818.34;;;4.65;97.61
64739;BME280;51175;51.186;0.276;2024-03-02T02:41:56;98801.09;;;4.64;97.92
64739;BME280;51175;51.186;0.276;2024-03-02T02:42:26;98805.25;;;4.65;97.48
64739;BME280;51175;51.186;0.276;2024-03-02T02:42:57;98801.88;;;4.65;97.44
64739;BME280;51175;51.186;0.276;2024-03-02T02:43:29;98812.34;;;4.65;97.50
64739;BME280;51175;51.186;0.276;2024-03-02T02:43:59;98803.72;;;4.64;97.42
64739;BME280;51175;51.186;0.276;2024-03-02T02:44:29;98813.38;;;4.64;97.34
64739;BME280;51175;51.186;0.276;2024-03-02T02:45:00;98804.75;;;4.63;97.37
64739;BME280;51175;51.186;0.276;2024-03-02T02:45:30;98804.75;;;4.63;97.33
64739;BME280;51175;51.186;0.276;2024-03-02T02:46:00;98802.16;;;4.63;97.23
64739;BME280;51175;51.186;0.276;2024-03-02T02:46:31;98802.91;;;4.64;97.17
64739;BME280;51175;51.186;0.276;2024-03-02T02:47:01;98801.34;;;4.63;96.97
64739;BME280;51175;51.186;0.276;2024-03-02T02:47:32;98807.38;;;4.63;97.14
64739;BME280;51175;51.186;0.276;2024-03-02T02:48:05;98808.41;;;4.62;97.02
64739;BME280;51175;51.186;0.276;2024-03-02T02:48:36;98803.16;;;4.62;97.09
64739;BME280;51175;51.186;0.276;2024-03-02T02:49:06;98804.75;;;4.63;97.08